createdAt,value
2023-05-18T00:02:26.744Z,6.40
2023-05-18T00:05:02.387Z,7.10
2023-05-18T00:07:34.392Z,7.70
2023-05-18T00:10:06.458Z,7.40
2023-05-18T00:12:37.875Z,7.80
2023-05-18T00:15:11.584Z,7.50
2023-05-18T00:17:42.986Z,6.40
2023-05-18T00:20:15.527Z,7.60
2023-05-18T00:22:48.484Z,7.90
2023-05-18T00:25:20.129Z,8.00
2023-05-18T00:27:52.240Z,7.50
2023-05-18T00:30:26.145Z,7.50
2023-05-18T00:32:57.517Z,7.10
2023-05-18T00:35:30.112Z,7.50
2023-05-18T00:38:01.714Z,8.20
2023-05-18T00:40:33.026Z,7.00
2023-05-18T00:43:04.506Z,7.30
2023-05-18T00:45:36.002Z,7.90
2023-05-18T00:48:08.139Z,7.80
2023-05-18T00:50:39.741Z,7.80
2023-05-18T00:53:12.075Z,8.00
2023-05-18T00:55:43.485Z,8.50
2023-05-18T00:58:14.899Z,8.20
2023-05-18T01:00:46.357Z,7.80
2023-05-18T01:03:20.397Z,7.70
2023-05-18T01:05:56.010Z,8.10
2023-05-18T01:08:27.495Z,7.80
2023-05-18T01:11:04.821Z,9.20
2023-05-18T01:13:43.364Z,7.50
2023-05-18T01:16:17.621Z,7.70
2023-05-18T01:18:55.364Z,9.00
2023-05-18T01:21:46.584Z,8.70
2023-05-18T01:24:26.810Z,9.00
2023-05-18T01:27:01.422Z,8.50
2023-05-18T01:29:32.802Z,8.20
2023-05-18T01:32:05.876Z,8.50
2023-05-18T01:34:37.219Z,9.10
2023-05-18T01:37:08.877Z,8.50
2023-05-18T01:39:40.238Z,8.10
2023-05-18T01:42:14.691Z,8.90
2023-05-18T01:44:47.190Z,8.70
2023-05-18T01:47:18.946Z,8.60
2023-05-18T01:49:53.019Z,8.20
2023-05-18T01:52:26.576Z,8.50
2023-05-18T01:54:59.654Z,8.20
2023-05-18T01:57:31.393Z,8.40
2023-05-18T02:02:32.975Z,9.20
2023-05-18T02:07:34.455Z,7.80
2023-05-18T02:10:06.537Z,9.00
2023-05-18T02:12:37.979Z,9.00
2023-05-18T02:15:11.364Z,8.20
2023-05-18T02:17:42.834Z,9.30
2023-05-18T02:20:18.593Z,9.70
2023-05-18T02:22:50.035Z,9.90
2023-05-18T02:25:21.629Z,8.60
2023-05-18T02:27:53.272Z,8.20
2023-05-18T02:30:25.046Z,8.90
2023-05-18T02:35:27.217Z,7.70
2023-05-18T02:37:58.916Z,8.30
2023-05-18T02:40:30.667Z,9.40
2023-05-18T02:43:02.013Z,8.30
2023-05-18T02:48:04.318Z,8.90
2023-05-18T02:50:35.917Z,9.40
2023-05-18T02:53:07.235Z,8.60
2023-05-18T02:55:39.170Z,8.50
2023-05-18T02:58:16.347Z,8.70
2023-05-18T03:01:14.245Z,8.00
2023-05-18T03:03:51.745Z,8.80
2023-05-18T03:06:27.097Z,9.40
2023-05-18T03:09:00.161Z,8.20
2023-05-18T03:11:37.337Z,8.30
2023-05-18T03:14:09.221Z,8.40
2023-05-18T03:16:41.325Z,8.30
2023-05-18T03:19:16.517Z,8.60
2023-05-18T03:24:17.818Z,9.00
2023-05-18T03:26:54.743Z,9.10
2023-05-18T03:29:26.529Z,9.40
2023-05-18T03:31:58.497Z,9.50
2023-05-18T03:34:29.929Z,9.00
2023-05-18T03:37:02.166Z,9.30
2023-05-18T03:39:34.040Z,9.20
2023-05-18T03:42:05.705Z,8.90
2023-05-18T03:44:37.424Z,9.10
2023-05-18T03:49:39.737Z,8.10
2023-05-18T03:52:11.800Z,10.00
2023-05-18T03:54:44.481Z,8.70
2023-05-18T03:57:16.104Z,9.10
2023-05-18T03:59:47.993Z,9.60
2023-05-18T04:02:19.740Z,8.90
2023-05-18T04:04:54.239Z,9.90
2023-05-18T04:07:25.592Z,8.70
2023-05-18T04:09:58.207Z,9.60
2023-05-18T04:12:29.844Z,9.30
2023-05-18T04:15:01.313Z,9.10
2023-05-18T04:17:33.858Z,9.30
2023-05-18T04:20:14.327Z,9.70
2023-05-18T04:22:48.624Z,8.40
2023-05-18T04:25:21.642Z,9.60
2023-05-18T04:30:24.972Z,8.40
2023-05-18T04:32:59.571Z,9.70
2023-05-18T04:35:33.133Z,9.40
2023-05-18T04:38:05.533Z,10.30
2023-05-18T04:40:38.709Z,9.30
2023-05-18T04:43:11.705Z,9.10
2023-05-18T04:45:46.841Z,8.60
2023-05-18T04:48:19.403Z,9.00
2023-05-18T04:50:54.503Z,8.30
2023-05-18T04:53:27.660Z,9.40
2023-05-18T04:56:01.113Z,9.10
2023-05-18T04:58:34.305Z,9.10
2023-05-18T05:01:07.153Z,8.40
2023-05-18T05:03:38.941Z,9.50
2023-05-18T05:08:41.057Z,9.00
2023-05-18T05:13:42.449Z,9.10
2023-05-18T05:16:14.855Z,9.10
2023-05-18T05:18:47.446Z,9.40
2023-05-18T05:21:19.911Z,8.80
2023-05-18T05:26:21.746Z,8.80
2023-05-18T05:28:53.295Z,8.50
2023-05-18T05:31:24.810Z,8.80
2023-05-18T05:33:56.523Z,8.40
2023-05-18T05:36:27.992Z,9.60
2023-05-18T05:38:59.653Z,9.00
2023-05-18T05:44:04.056Z,9.00
2023-05-18T05:46:35.724Z,8.60
2023-05-18T05:49:08.207Z,9.50
2023-05-18T05:51:39.792Z,9.00
2023-05-18T05:54:12.059Z,9.80
2023-05-18T05:56:43.880Z,9.50
2023-05-18T05:59:16.414Z,9.50
2023-05-18T06:01:48.591Z,9.90
2023-05-18T06:04:20.899Z,10.20
2023-05-18T06:06:53.946Z,10.00
2023-05-18T06:09:32.395Z,10.70
2023-05-18T06:12:05.348Z,10.30
2023-05-18T06:14:38.655Z,11.40
2023-05-18T06:17:11.052Z,9.70
2023-05-18T06:19:43.333Z,11.60
2023-05-18T06:22:15.515Z,9.70
2023-05-18T06:24:59.160Z,10.10
2023-05-18T06:27:44.842Z,10.20
2023-05-18T06:30:42.015Z,10.80
2023-05-18T06:33:26.302Z,11.10
2023-05-18T06:35:58.669Z,10.20
2023-05-18T06:38:30.745Z,11.50
2023-05-18T06:41:02.988Z,9.80
2023-05-18T06:43:40.546Z,11.50
2023-05-18T06:46:26.813Z,11.20
2023-05-18T06:49:22.441Z,11.80
2023-05-18T06:52:06.241Z,11.40
2023-05-18T06:54:43.914Z,11.50
2023-05-18T06:57:17.071Z,12.10
2023-05-18T06:59:54.354Z,11.30
2023-05-18T07:02:29.146Z,11.30
2023-05-18T07:05:01.917Z,10.90
2023-05-18T07:07:33.983Z,11.00
2023-05-18T07:10:08.279Z,11.00
2023-05-18T07:12:41.140Z,10.30
2023-05-18T07:15:15.093Z,11.40
2023-05-18T07:17:47.466Z,10.60
2023-05-18T07:20:20.572Z,11.10
2023-05-18T07:22:55.552Z,11.40
2023-05-18T07:25:28.369Z,10.50
2023-05-18T07:28:03.694Z,12.00
2023-05-18T07:30:35.610Z,10.80
2023-05-18T07:33:07.301Z,11.20
2023-05-18T07:35:39.319Z,11.30
2023-05-18T07:38:11.238Z,11.60
2023-05-18T07:40:42.734Z,12.50
2023-05-18T07:43:14.387Z,12.40
2023-05-18T07:45:45.777Z,10.70
2023-05-18T07:48:17.279Z,11.90
2023-05-18T07:50:49.024Z,12.20
2023-05-18T07:55:50.480Z,10.80
2023-05-18T08:00:52.140Z,11.20
2023-05-18T08:03:23.857Z,11.20
2023-05-18T08:05:56.001Z,11.00
2023-05-18T08:08:27.592Z,10.40
2023-05-18T08:11:00.752Z,11.40
2023-05-18T08:13:33.849Z,10.00
2023-05-18T08:16:11.905Z,10.10
2023-05-18T08:18:44.024Z,12.70
2023-05-18T08:21:15.824Z,12.30
2023-05-18T08:26:17.611Z,10.50
2023-05-18T08:28:50.192Z,10.30
2023-05-18T08:31:21.816Z,10.70
2023-05-18T08:33:54.136Z,10.80
2023-05-18T08:36:25.520Z,11.30
2023-05-18T08:38:57.421Z,11.00
2023-05-18T08:41:32.615Z,12.30
2023-05-18T08:44:05.497Z,11.60
2023-05-18T08:46:38.147Z,12.00
2023-05-18T08:49:10.828Z,10.80
2023-05-18T08:51:42.963Z,10.70
2023-05-18T08:54:15.505Z,11.50
2023-05-18T08:56:47.360Z,10.40
2023-05-18T08:59:20.629Z,10.70
2023-05-18T09:01:52.542Z,11.20
2023-05-18T09:04:24.643Z,9.90
2023-05-18T09:07:00.585Z,11.00
2023-05-18T09:09:32.284Z,10.10
2023-05-18T09:14:33.868Z,10.70
2023-05-18T09:17:05.648Z,9.20
2023-05-18T09:19:37.785Z,10.30
2023-05-18T09:22:09.808Z,9.10
2023-05-18T09:24:41.420Z,8.10
2023-05-18T09:27:13.252Z,9.10
2023-05-18T09:29:54.831Z,9.00
2023-05-18T09:32:26.280Z,8.90
2023-05-18T09:34:57.792Z,9.70
2023-05-18T09:40:05.252Z,9.70
2023-05-18T09:42:39.730Z,9.10
2023-05-18T09:45:19.531Z,9.00
2023-05-18T09:47:51.259Z,9.80
2023-05-18T09:50:23.836Z,8.90
2023-05-18T09:52:57.808Z,8.80
2023-05-18T09:55:29.360Z,8.70
2023-05-18T09:58:03.648Z,9.20
2023-05-18T10:00:36.701Z,8.20
2023-05-18T10:03:08.632Z,8.00
2023-05-18T10:05:40.332Z,8.30
2023-05-18T10:08:11.722Z,8.50
2023-05-18T10:13:19.140Z,7.80
2023-05-18T10:15:52.659Z,8.70
2023-05-18T10:18:25.393Z,9.10
2023-05-18T10:20:59.859Z,7.60
2023-05-18T10:23:34.571Z,6.80
2023-05-18T10:26:07.867Z,7.70
2023-05-18T10:28:43.075Z,8.10
2023-05-18T10:31:14.617Z,8.80
2023-05-18T10:33:46.403Z,8.90
2023-05-18T10:36:17.943Z,7.50
2023-05-18T10:38:49.427Z,7.50
2023-05-18T10:43:51.056Z,7.60
2023-05-18T10:46:26.971Z,8.20
2023-05-18T10:48:58.778Z,6.90
2023-05-18T10:51:31.895Z,7.90
2023-05-18T10:54:15.137Z,8.30
2023-05-18T10:56:50.613Z,7.90
2023-05-18T10:59:23.465Z,8.00
2023-05-18T11:01:55.602Z,7.90
2023-05-18T11:04:30.432Z,7.70
2023-05-18T11:07:02.607Z,7.50
2023-05-18T11:09:34.066Z,7.10
2023-05-18T11:12:05.733Z,8.20
2023-05-18T11:14:37.324Z,8.20
2023-05-18T11:17:25.677Z,9.10
2023-05-18T11:20:19.776Z,7.90
2023-05-18T11:22:52.784Z,7.30
2023-05-18T11:25:42.103Z,7.90
2023-05-18T11:28:14.338Z,7.40
2023-05-18T11:30:52.811Z,7.30
2023-05-18T11:33:30.108Z,8.00
2023-05-18T11:36:11.783Z,8.50
2023-05-18T11:38:51.981Z,8.20
2023-05-18T11:41:36.514Z,9.90
2023-05-18T11:44:16.371Z,8.80
2023-05-18T11:47:02.416Z,7.90
2023-05-18T11:49:38.056Z,6.70
2023-05-18T11:52:17.601Z,7.50
2023-05-18T11:54:52.484Z,7.90
2023-05-18T11:57:31.428Z,7.10
2023-05-18T12:00:06.861Z,6.80
2023-05-18T12:02:46.541Z,7.60
2023-05-18T12:05:18.288Z,7.00
2023-05-18T12:10:19.714Z,7.40
2023-05-18T12:12:52.229Z,7.00
2023-05-18T12:15:25.935Z,8.20
2023-05-18T12:17:59.823Z,7.70
2023-05-18T12:20:31.626Z,7.10
2023-05-18T12:23:03.667Z,7.30
2023-05-18T12:25:35.034Z,6.80
2023-05-18T12:30:37.268Z,7.00
2023-05-18T12:33:09.197Z,7.20
2023-05-18T12:35:40.725Z,6.40
2023-05-18T12:38:12.316Z,6.10
2023-05-18T12:40:49.617Z,5.80
2023-05-18T12:43:21.169Z,6.10
2023-05-18T12:45:52.763Z,6.00
2023-05-18T12:48:26.842Z,5.80
2023-05-18T12:50:58.395Z,5.60
2023-05-18T12:53:34.234Z,5.40
2023-05-18T12:56:09.963Z,5.50
2023-05-18T12:58:44.803Z,5.20
2023-05-18T13:01:16.514Z,5.90
2023-05-18T13:03:48.717Z,5.50
2023-05-18T13:06:20.288Z,5.00
2023-05-18T13:08:54.440Z,5.20
2023-05-18T13:11:30.184Z,5.90
2023-05-18T13:14:05.535Z,5.90
2023-05-18T13:16:38.987Z,5.90
2023-05-18T13:19:11.701Z,5.50
2023-05-18T13:21:43.438Z,5.50
2023-05-18T13:24:15.244Z,5.30
2023-05-18T13:26:46.692Z,6.00
2023-05-18T13:31:47.972Z,6.90
2023-05-18T13:34:19.437Z,5.50
2023-05-18T13:36:51.230Z,5.30
2023-05-18T13:39:23.221Z,5.60
2023-05-18T13:41:54.874Z,5.30
2023-05-18T13:44:26.264Z,6.30
2023-05-18T13:49:27.945Z,5.80
2023-05-18T13:52:00.538Z,4.90
2023-05-18T13:54:32.225Z,5.50
2023-05-18T13:57:04.096Z,4.90
2023-05-18T13:59:35.893Z,5.00
2023-05-18T14:02:08.141Z,4.80
2023-05-18T14:04:39.642Z,5.10
2023-05-18T14:07:11.267Z,4.30
2023-05-18T14:12:13.228Z,4.30
2023-05-18T14:14:44.811Z,4.10
2023-05-18T14:17:16.343Z,4.10
2023-05-18T14:19:47.922Z,3.80
2023-05-18T14:22:19.485Z,3.90
2023-05-18T14:24:51.276Z,3.70
2023-05-18T14:27:22.825Z,3.80
2023-05-18T14:29:54.712Z,3.50
2023-05-18T14:32:26.457Z,3.50
2023-05-18T14:34:58.838Z,3.40
2023-05-18T14:37:30.294Z,3.30
2023-05-18T14:40:01.768Z,3.30
2023-05-18T14:42:33.376Z,4.20
2023-05-18T14:45:05.171Z,3.40
2023-05-18T14:47:36.847Z,3.70
2023-05-18T14:50:09.824Z,3.00
2023-05-18T14:52:41.627Z,3.20
2023-05-18T14:55:13.638Z,3.30
2023-05-18T14:57:45.257Z,3.20
2023-05-18T15:00:18.299Z,3.70
2023-05-18T15:02:50.249Z,3.20
2023-05-18T15:05:21.848Z,4.40
2023-05-18T15:07:53.414Z,4.30
2023-05-18T15:10:25.201Z,5.20
2023-05-18T15:12:56.955Z,5.20
2023-05-18T15:15:28.381Z,4.40
2023-05-18T15:17:59.955Z,5.10
2023-05-18T15:20:32.880Z,4.30
2023-05-18T15:23:04.744Z,4.70
2023-05-18T15:25:36.182Z,5.00
2023-05-18T15:28:07.826Z,4.50
2023-05-18T15:30:39.989Z,4.20
2023-05-18T15:33:11.578Z,4.60
2023-05-18T15:35:43.198Z,4.20
2023-05-18T15:38:14.561Z,4.10
2023-05-18T15:40:48.432Z,4.00
2023-05-18T15:43:20.588Z,4.10
2023-05-18T15:45:52.126Z,3.90
2023-05-18T15:48:23.740Z,3.60
2023-05-18T15:50:55.300Z,4.30
2023-05-18T15:53:27.057Z,4.00
2023-05-18T15:55:59.591Z,3.50
2023-05-18T15:58:31.801Z,3.60
2023-05-18T16:01:03.295Z,3.90
2023-05-18T16:03:34.836Z,4.40
2023-05-18T16:06:06.810Z,4.20
2023-05-18T16:08:38.256Z,4.00
2023-05-18T16:11:09.804Z,4.40
2023-05-18T16:13:41.509Z,4.10
2023-05-18T16:16:14.370Z,4.10
2023-05-18T16:18:46.094Z,4.30
2023-05-18T16:21:17.805Z,4.30
2023-05-18T16:23:49.573Z,3.80
2023-05-18T16:26:22.351Z,3.90
2023-05-18T16:28:54.247Z,4.80
2023-05-18T16:31:26.054Z,4.20
2023-05-18T16:33:57.677Z,4.70
2023-05-18T16:36:29.466Z,4.50
2023-05-18T16:39:03.079Z,4.80
2023-05-18T16:41:34.856Z,4.60
2023-05-18T16:44:06.645Z,5.30
2023-05-18T16:46:38.262Z,5.80
2023-05-18T16:49:09.675Z,4.90
2023-05-18T16:54:11.832Z,5.30
2023-05-18T16:56:43.337Z,5.40
2023-05-18T17:01:45.288Z,5.90
2023-05-18T17:04:16.849Z,6.40
2023-05-18T17:06:48.626Z,5.50
2023-05-18T17:09:21.334Z,5.70
2023-05-18T17:11:53.024Z,5.90
2023-05-18T17:14:25.217Z,5.40
2023-05-18T17:16:56.693Z,5.40
2023-05-18T17:21:58.360Z,5.60
2023-05-18T17:27:00.213Z,5.20
2023-05-18T17:32:01.688Z,6.20
2023-05-18T17:34:33.407Z,6.00
2023-05-18T17:39:35.166Z,6.20
2023-05-18T17:42:07.545Z,6.40
2023-05-18T17:44:39.062Z,6.40
2023-05-18T17:47:10.798Z,6.70
2023-05-18T17:49:42.473Z,6.70
2023-05-18T17:52:14.327Z,7.10
2023-05-18T17:54:45.973Z,7.20
2023-05-18T17:59:47.437Z,5.80
2023-05-18T18:02:18.805Z,6.50
2023-05-18T18:04:51.301Z,7.20
2023-05-18T18:07:23.277Z,7.30
2023-05-18T18:09:55.089Z,6.60
2023-05-18T18:12:26.599Z,6.80
2023-05-18T18:14:58.025Z,6.40
2023-05-18T18:17:29.681Z,7.40
2023-05-18T18:22:33.648Z,6.70
2023-05-18T18:25:07.058Z,8.40
2023-05-18T18:27:38.511Z,7.30
2023-05-18T18:30:11.893Z,8.10
2023-05-18T18:32:43.662Z,7.90
2023-05-18T18:35:15.403Z,7.70
2023-05-18T18:37:47.613Z,8.60
2023-05-18T18:40:19.505Z,9.40
2023-05-18T18:42:51.640Z,8.80
2023-05-18T18:45:23.412Z,8.30
2023-05-18T18:50:25.028Z,7.30
2023-05-18T18:52:56.479Z,7.70
2023-05-18T18:55:27.928Z,7.10
2023-05-18T18:58:01.360Z,7.00
2023-05-18T19:00:33.071Z,7.40
2023-05-18T19:03:04.786Z,6.90
2023-05-18T19:08:07.028Z,7.10
2023-05-18T19:10:38.868Z,7.20
2023-05-18T19:13:10.353Z,7.10
2023-05-18T19:15:41.991Z,7.40
2023-05-18T19:18:13.414Z,8.60
2023-05-18T19:20:44.987Z,8.70
2023-05-18T19:25:46.365Z,6.80
2023-05-18T19:28:18.012Z,7.50
2023-05-18T19:30:49.627Z,6.80
2023-05-18T19:33:21.543Z,6.10
2023-05-18T19:35:54.574Z,6.10
2023-05-18T19:38:26.604Z,6.50
2023-05-18T19:40:58.211Z,6.30
2023-05-18T19:43:30.918Z,5.20
2023-05-18T19:46:02.538Z,6.30
2023-05-18T19:48:34.162Z,5.90
2023-05-18T19:51:06.573Z,5.80
2023-05-18T19:53:38.321Z,6.20
2023-05-18T19:56:09.905Z,6.20
2023-05-18T19:58:41.421Z,6.60
2023-05-18T20:01:12.948Z,6.90
2023-05-18T20:03:44.437Z,7.10
2023-05-18T20:06:15.921Z,7.30
2023-05-18T20:08:48.140Z,6.60
2023-05-18T20:11:19.972Z,6.60
2023-05-18T20:13:51.386Z,8.50
2023-05-18T20:16:22.893Z,8.20
2023-05-18T20:18:54.329Z,9.20
2023-05-18T20:21:25.790Z,8.60
2023-05-18T20:23:57.656Z,8.50
2023-05-18T20:26:31.338Z,7.60
2023-05-18T20:29:03.877Z,8.10
2023-05-18T20:34:07.146Z,9.90
2023-05-18T20:36:38.563Z,9.90
2023-05-18T20:39:10.662Z,9.10
2023-05-18T20:44:14.413Z,9.00
2023-05-18T20:46:45.898Z,7.50
2023-05-18T20:49:17.512Z,8.00
2023-05-18T20:51:49.660Z,8.30
2023-05-18T20:54:21.696Z,7.40
2023-05-18T20:56:53.343Z,6.80
2023-05-18T21:01:54.918Z,7.00
2023-05-18T21:04:26.363Z,6.60
2023-05-18T21:06:57.771Z,6.20
2023-05-18T21:09:31.459Z,7.10
2023-05-18T21:12:02.897Z,7.40
2023-05-18T21:14:34.431Z,7.60
2023-05-18T21:19:35.621Z,8.10
2023-05-18T21:22:07.211Z,8.00
2023-05-18T21:27:08.649Z,7.80
2023-05-18T21:29:40.111Z,8.30
2023-05-18T21:32:12.131Z,8.70
2023-05-18T21:34:43.902Z,7.70
2023-05-18T21:37:15.437Z,8.10
2023-05-18T21:39:47.154Z,8.20
2023-05-18T21:42:18.579Z,7.20
2023-05-18T21:47:19.906Z,7.90
2023-05-18T21:49:52.281Z,7.40
2023-05-18T21:52:23.712Z,9.00
2023-05-18T21:54:55.215Z,7.80
2023-05-18T21:57:26.718Z,8.20
2023-05-18T22:02:28.034Z,7.20
2023-05-18T22:04:59.443Z,8.50
2023-05-18T22:07:31.269Z,7.30
2023-05-18T22:10:02.729Z,8.00
2023-05-18T22:12:34.690Z,7.90
2023-05-18T22:15:07.704Z,8.00
2023-05-18T22:17:39.304Z,7.10
2023-05-18T22:22:44.651Z,7.90
2023-05-18T22:25:18.338Z,8.20
2023-05-18T22:27:49.779Z,8.30
2023-05-18T22:30:24.059Z,8.10
2023-05-18T22:32:55.627Z,8.50
2023-05-18T22:37:57.613Z,7.80
2023-05-18T22:40:28.991Z,8.10
2023-05-18T22:43:00.405Z,8.50
2023-05-18T22:45:31.878Z,9.60
2023-05-18T22:48:03.690Z,9.00
2023-05-18T22:50:35.514Z,8.20
2023-05-18T22:53:10.381Z,9.40
2023-05-18T22:55:41.841Z,8.00
2023-05-18T22:58:13.236Z,8.70
2023-05-18T23:00:44.688Z,7.80
2023-05-18T23:03:17.711Z,8.80
2023-05-18T23:05:49.663Z,9.90
2023-05-18T23:08:21.717Z,8.60
2023-05-18T23:10:53.071Z,9.10
2023-05-18T23:13:24.489Z,8.70
2023-05-18T23:15:57.030Z,9.40
2023-05-18T23:18:28.519Z,8.80
2023-05-18T23:20:59.995Z,9.20
2023-05-18T23:23:31.427Z,8.70
2023-05-18T23:26:02.999Z,8.30
2023-05-18T23:28:34.477Z,9.10
2023-05-18T23:31:05.925Z,9.30
2023-05-18T23:33:38.256Z,7.60
2023-05-18T23:36:10.872Z,7.70
2023-05-18T23:38:42.272Z,8.70
2023-05-18T23:41:13.729Z,9.20
2023-05-18T23:43:46.095Z,8.50
2023-05-18T23:46:18.891Z,8.60
2023-05-18T23:48:52.629Z,8.80
2023-05-18T23:51:24.368Z,8.70
2023-05-18T23:56:26.651Z,8.90
2023-05-18T23:58:59.144Z,8.30
